Главная страница
METAR-TAF:

METAR-TAF

Аэропорты :

Хейдрун, Норвегия

широта: 65-19-30N, долгота: 007-19-36E, высота над уровнем моря: 0 м

Текущие метеонаблюдения

Эта сводка был подготовлена 15 минут назад, в 06:20 UTC
Ветер 37 Узел от юго-западный
Температура 10°C
Влажность 71%
Давление 987 hPa
Видимость 10 км и более
небольшая облачность на высоте 2200 фута
Рассеянная облачность на высоте 2500 фута

METAR: ENHE 210620Z 23037KT 9999 FEW022 BKN025 10/05 Q0987 W///S6

Время: 08:35 (06:35 UTC)

Прогноз

Эта сводка был подготовлена 1 час и 35 минут назад, в 05:00 UTC
Прогноз действительный с 21-го 06 UTC до 21-го 15 UTC
Ветер 38 Узел от западный-юго-западный
Видимость 10 км и более
Рассеянная облачность на высоте 2500 фута
изменения
С 21-го 07 UTC до 21-го 09 UTC
Ветер 28 Узел от юго-западный
изменения
С 21-го 12 UTC до 21-го 14 UTC
Ветер 12 Узел от южный

TAF: ENHE 210500Z 2106/2115 24038KT 9999 BKN025 BECMG 2107/2109 23028KT BECMG 2112/2114 19012KT

Метеонаблюдения и прогнозы для более 4000 аэропортов (сводки METAR и TAF).

Имеющиеся станции представлены на карте желтыми и красными точками.

Чтобы увидеть название станции, наведите на нее мышь.

Затем щелкните, чтобы увидеть метеонаблюдения и метеопрогнозы.

Управление картой: чтобы увеличить масштаб, щелкните зеленые кнопки с черным крестиком; чтобы уменьшить масштаб, щелкните зеленую кнопку с тире; для просмотра соседних карт щелкайте зеленые стрелки.


METAR-TAF: